NCAR-RAP Real-Time Weather Data

Output produced by METARs form (23 February 2020  02:38 UTC)
found at http://weather.rap.ucar.edu/surface/
 
KBWI 230154Z 23004KT 10SM CLR 03/M11 A3025 RMK AO2 SLP244 T00281111
KBWI 230054Z 22005KT 10SM CLR 08/M13 A3025 RMK AO2 SLP242 T00781133
KBWI 222354Z 21003KT 10SM CLR 08/M14 A3024 RMK AO2 SLP242 T00831144 10122 20083 53001
KBWI 222254Z 22004KT 10SM CLR 11/M15 A3023 RMK AO2 SLP238 T01061150
KBWI 222154Z 24009KT 10SM CLR 12/M15 A3023 RMK AO2 SLP237 T01221150
KBWI 222054Z 22008KT 10SM CLR 12/M15 A3024 RMK AO2 SLP241 T01221150 56024
KBWI 221954Z 26006G16KT 10SM CLR 12/M15 A3026 RMK AO2 SLP248 T01221150
KBWI 221854Z 25010KT 10SM CLR 11/M16 A3029 RMK AO2 SLP256 T01111156
KBWI 221754Z 27013G18KT 10SM CLR 09/M16 A3031 RMK AO2 SLP264 T00941156 10100 21028 58026
KBWI 221654Z 30011KT 10SM CLR 09/M15 A3035 RMK AO2 SLP276 T00891150
KBWI 221554Z 27011KT 10SM FEW250 08/M14 A3037 RMK AO2 SLP286 T00781144
KBWI 221454Z 25010KT 10SM FEW250 05/M13 A3039 RMK AO2 SLP292 T00501133 50003
KBWI 221354Z 23007KT 10SM CLR 02/M14 A3040 RMK AO2 SLP296 T00221139
KBWI 221254Z 22004KT 10SM CLR M01/M12 A3039 RMK AO2 SLP294 T10111122
KBWI 221154Z 00000KT 10SM CLR M03/M13 A3038 RMK AO2 SLP288 T10281133 11011 21039 53007
KBWI 221054Z 21005KT 10SM CLR M02/M14 A3036 RMK AO2 SLP280 T10221139
KBWI 220954Z 24005KT 10SM CLR M02/M13 A3036 RMK AO2 SLP282 T10221128
KBWI 220854Z 24003KT 10SM CLR M03/M13 A3036 RMK AO2 SLP282 T10331128 56015
KBWI 220754Z 25003KT 10SM CLR M03/M13 A3037 RMK AO2 SLP284 T10281133
KBWI 220654Z 23003KT 10SM CLR M03/M12 A3039 RMK AO2 SLP291 T10331117
KBWI 220554Z 26005KT 10SM CLR M03/M12 A3040 RMK AO2 SLP296 T10331117 10000 21033 56012
KBWI 220454Z 24004KT 10SM CLR M03/M12 A3041 RMK AO2 SLP298 T10281117 400391050
KBWI 220354Z 00000KT 10SM CLR M03/M12 A3043 RMK AO2 SLP306 T10281117
KBWI 220254Z 23003KT 10SM CLR M02/M12 A3044 RMK AO2 SLP309 T10221117 58009
KBWI 220154Z 22003KT 10SM CLR M01/M14 A3045 RMK AO2 SLP312 T10061139
KBWI 220054Z 23003KT 10SM CLR M02/M13 A3046 RMK AO2 SLP316 T10171128
KBWI 212354Z 23003KT 10SM CLR 00/M14 A3047 RMK AO2 SLP318 T00001139 10039 20000 55001
KBWI 212254Z 31004KT 10SM CLR 01/M15 A3046 RMK AO2 SLP315 T00111150
KBWI 212154Z 33006KT 10SM CLR 03/M16 A3046 RMK AO2 SLP316 T00281161
KBWI 212054Z 30007KT 10SM CLR 03/M15 A3047 RMK AO2 SLP319 T00331150 56017
KBWI 211954Z 28007KT 10SM CLR 03/M14 A3048 RMK AO2 SLP324 T00331144
KBWI 211854Z 01006KT 10SM CLR 03/M15 A3050 RMK AO2 SLP329 T00281150
KBWI 211754Z COR 35006KT 10SM CLR 01/M14 A3052 RMK AO2 SLP337 T00111144 10017 21050 58012
KBWI 211654Z 34006KT 10SM CLR 01/M14 A3055 RMK AO2 SLP346 T00061139
KBWI 211554Z 34009KT 10SM FEW048 M01/M14 A3056 RMK AO2 SLP349 T10061144
KBWI 211454Z VRB06KT 10SM FEW048 M02/M14 A3056 RMK AO2 SLP348 T10171144 51013
KBWI 211354Z 34008KT 310V020 10SM FEW044 M03/M14 A3055 RMK AO2 SLP346 T10281144
KBWI 211254Z 34007KT 10SM FEW044 M04/M14 A3054 RMK AO2 SLP342 T10391144
KBWI 211154Z 35004KT 10SM FEW044 M05/M14 A3052 RMK AO2 SLP335 T10501139 11006 21050 51019
KBWI 211054Z 01009KT 10SM FEW044 M04/M14 A3050 RMK AO2 SLP330 T10441139
KBWI 210954Z 36007KT 10SM FEW044 M04/M13 A3048 RMK AO2 SLP322 T10391133
KBWI 210854Z 02011KT 10SM FEW044 M03/M12 A3046 RMK AO2 SLP316 T10331122 52003
KBWI 210754Z 01009G19KT 10SM SCT044 SCT200 M02/M13 A3046 RMK AO2 SLP314 T10221133
KBWI 210654Z 02010G16KT 10SM BKN048 BKN200 M01/M10 A3045 RMK AO2 SLP314 T10111100
KBWI 210554Z 36011KT 10SM FEW038 BKN050 BKN200 M01/M09 A3045 RMK AO2 SLP313 T10061094 10022 21006 53008
KBWI 210454Z 35011G17KT 10SM SCT045 BKN060 00/M10 A3044 RMK AO2 SLP309 T00001100 400441028
KBWI 210354Z 36006KT 10SM FEW042 OVC070 01/M09 A3043 RMK AO2 SLP306 T00111089
KBWI 210254Z 35006KT 10SM OVC070 02/M09 A3043 RMK AO2 SLP305 T00171094 53007